Terminal Aerodrome Forecast
Issued by NWS Wilmington, OH

Current Version | Previous Version | Text Only | Print | Product List | Glossary Off
Versions: 1 2 3 4 5 6 7 8 9 10 11 12 13 14 15 16 17 18 19 20 21 22 23 24 25

000
FTUS41 KILN 251125
TAFCVG
TAF
KCVG 251125Z 2512/2618 22004KT 6SM BR FEW035 BKN250
     FM251300 24008KT P6SM BKN250
     FM251800 25009KT P6SM VCTS SCT050CB SCT120 BKN250
     FM252100 30007KT P6SM VCTS SCT040CB BKN120 BKN250
     FM260100 26004KT P6SM BKN100 BKN250
      TEMPO 2608/2612 3SM BR
     FM261300 33005KT P6SM BKN100 BKN250=

USA.gov is the U.S. government's official web portal to all federal, state and local government web resources and services.